sensor_id;sensor_type;location;lat;lon;timestamp;P1;durP1;ratioP1;P2;durP2;ratioP2
27199;SDS011;14714;48.106;11.546;2022-08-04T00:02:01;3.10;;;2.80;;
27199;SDS011;14714;48.106;11.546;2022-08-04T00:04:39;3.58;;;3.08;;
27199;SDS011;14714;48.106;11.546;2022-08-04T00:07:20;7.32;;;3.45;;
27199;SDS011;14714;48.106;11.546;2022-08-04T00:10:10;3.90;;;2.97;;
27199;SDS011;14714;48.106;11.546;2022-08-04T00:12:42;4.90;;;3.15;;
27199;SDS011;14714;48.106;11.546;2022-08-04T00:15:15;5.00;;;3.40;;
27199;SDS011;14714;48.106;11.546;2022-08-04T00:17:44;4.30;;;3.00;;
27199;SDS011;14714;48.106;11.546;2022-08-04T00:20:17;7.00;;;3.25;;
27199;SDS011;14714;48.106;11.546;2022-08-04T00:22:46;4.93;;;3.20;;
27199;SDS011;14714;48.106;11.546;2022-08-04T00:25:14;3.42;;;3.13;;
27199;SDS011;14714;48.106;11.546;2022-08-04T00:27:42;6.95;;;3.08;;
27199;SDS011;14714;48.106;11.546;2022-08-04T00:30:09;3.47;;;3.03;;
27199;SDS011;14714;48.106;11.546;2022-08-04T00:32:37;4.75;;;3.28;;
27199;SDS011;14714;48.106;11.546;2022-08-04T00:35:07;7.00;;;3.15;;
27199;SDS011;14714;48.106;11.546;2022-08-04T00:37:36;4.40;;;3.25;;
27199;SDS011;14714;48.106;11.546;2022-08-04T00:43:02;6.35;;;3.30;;
27199;SDS011;14714;48.106;11.546;2022-08-04T00:45:49;4.32;;;3.00;;
27199;SDS011;14714;48.106;11.546;2022-08-04T01:00:07;3.63;;;3.13;;
27199;SDS011;14714;48.106;11.546;2022-08-04T01:02:39;4.43;;;3.00;;
27199;SDS011;14714;48.106;11.546;2022-08-04T01:05:33;3.92;;;3.10;;
27199;SDS011;14714;48.106;11.546;2022-08-04T01:16:31;3.72;;;3.33;;
27199;SDS011;14714;48.106;11.546;2022-08-04T01:19:07;3.92;;;3.17;;
27199;SDS011;14714;48.106;11.546;2022-08-04T01:25:27;4.28;;;3.00;;
27199;SDS011;14714;48.106;11.546;2022-08-04T01:30:43;9.38;;;3.22;;
27199;SDS011;14714;48.106;11.546;2022-08-04T01:33:12;5.95;;;3.33;;
27199;SDS011;14714;48.106;11.546;2022-08-04T01:35:55;4.63;;;3.30;;
27199;SDS011;14714;48.106;11.546;2022-08-04T01:41:12;3.30;;;2.80;;
27199;SDS011;14714;48.106;11.546;2022-08-04T01:43:41;3.55;;;3.00;;
27199;SDS011;14714;48.106;11.546;2022-08-04T01:46:10;4.07;;;3.08;;
27199;SDS011;14714;48.106;11.546;2022-08-04T01:48:44;4.72;;;3.40;;
27199;SDS011;14714;48.106;11.546;2022-08-04T01:51:12;3.80;;;3.05;;
27199;SDS011;14714;48.106;11.546;2022-08-04T01:53:40;4.40;;;3.20;;
27199;SDS011;14714;48.106;11.546;2022-08-04T01:56:09;4.40;;;2.95;;
27199;SDS011;14714;48.106;11.546;2022-08-04T01:58:37;5.78;;;3.05;;
27199;SDS011;14714;48.106;11.546;2022-08-04T02:01:07;5.70;;;3.15;;
27199;SDS011;14714;48.106;11.546;2022-08-04T02:03:39;4.35;;;2.80;;
27199;SDS011;14714;48.106;11.546;2022-08-04T02:11:58;4.63;;;3.00;;
27199;SDS011;14714;48.106;11.546;2022-08-04T02:14:48;3.15;;;2.85;;
27199;SDS011;14714;48.106;11.546;2022-08-04T02:17:25;3.60;;;2.80;;
27199;SDS011;14714;48.106;11.546;2022-08-04T02:22:52;3.65;;;2.95;;
27199;SDS011;14714;48.106;11.546;2022-08-04T02:25:36;4.53;;;2.83;;
27199;SDS011;14714;48.106;11.546;2022-08-04T02:28:18;3.30;;;2.70;;
27199;SDS011;14714;48.106;11.546;2022-08-04T02:33:37;3.50;;;2.75;;
27199;SDS011;14714;48.106;11.546;2022-08-04T02:36:12;4.65;;;2.83;;
27199;SDS011;14714;48.106;11.546;2022-08-04T02:41:20;3.00;;;2.63;;
27199;SDS011;14714;48.106;11.546;2022-08-04T02:43:50;5.10;;;3.15;;
27199;SDS011;14714;48.106;11.546;2022-08-04T02:48:48;3.40;;;2.80;;
27199;SDS011;14714;48.106;11.546;2022-08-04T02:51:19;4.40;;;2.80;;
27199;SDS011;14714;48.106;11.546;2022-08-04T02:53:53;3.88;;;2.95;;
27199;SDS011;14714;48.106;11.546;2022-08-04T02:56:22;3.78;;;3.05;;
27199;SDS011;14714;48.106;11.546;2022-08-04T02:58:52;4.38;;;2.85;;
27199;SDS011;14714;48.106;11.546;2022-08-04T03:01:23;4.57;;;2.90;;
27199;SDS011;14714;48.106;11.546;2022-08-04T03:03:52;3.08;;;2.78;;
27199;SDS011;14714;48.106;11.546;2022-08-04T03:18:00;4.85;;;2.88;;
27199;SDS011;14714;48.106;11.546;2022-08-04T03:29:25;3.03;;;2.72;;
27199;SDS011;14714;48.106;11.546;2022-08-04T04:01:39;3.45;;;2.50;;
27199;SDS011;14714;48.106;11.546;2022-08-04T04:04:32;4.80;;;2.80;;
27199;SDS011;14714;48.106;11.546;2022-08-04T04:07:30;3.17;;;2.40;;
27199;SDS011;14714;48.106;11.546;2022-08-04T04:13:13;3.05;;;2.70;;
27199;SDS011;14714;48.106;11.546;2022-08-04T04:16:03;5.90;;;2.60;;
27199;SDS011;14714;48.106;11.546;2022-08-04T04:18:51;3.65;;;2.75;;
27199;SDS011;14714;48.106;11.546;2022-08-04T04:26:53;3.20;;;2.90;;
27199;SDS011;14714;48.106;11.546;2022-08-04T04:32:04;3.33;;;2.50;;
27199;SDS011;14714;48.106;11.546;2022-08-04T04:42:58;6.55;;;3.17;;
27199;SDS011;14714;48.106;11.546;2022-08-04T04:45:40;5.00;;;2.95;;
27199;SDS011;14714;48.106;11.546;2022-08-04T04:48:32;4.30;;;2.75;;
27199;SDS011;14714;48.106;11.546;2022-08-04T04:51:28;4.68;;;3.08;;
27199;SDS011;14714;48.106;11.546;2022-08-04T04:59:35;4.50;;;2.97;;
27199;SDS011;14714;48.106;11.546;2022-08-04T05:16:20;3.05;;;2.50;;
27199;SDS011;14714;48.106;11.546;2022-08-04T05:24:13;4.35;;;2.35;;
27199;SDS011;14714;48.106;11.546;2022-08-04T05:26:48;6.63;;;2.60;;
27199;SDS011;14714;48.106;11.546;2022-08-04T05:29:21;5.75;;;2.47;;
27199;SDS011;14714;48.106;11.546;2022-08-04T05:32:04;4.95;;;2.10;;
27199;SDS011;14714;48.106;11.546;2022-08-04T05:34:38;3.95;;;2.40;;
27199;SDS011;14714;48.106;11.546;2022-08-04T05:37:09;4.20;;;2.13;;
27199;SDS011;14714;48.106;11.546;2022-08-04T05:39:45;5.15;;;2.20;;
27199;SDS011;14714;48.106;11.546;2022-08-04T05:42:15;3.72;;;2.20;;
27199;SDS011;14714;48.106;11.546;2022-08-04T05:44:42;4.80;;;2.33;;
27199;SDS011;14714;48.106;11.546;2022-08-04T05:47:16;4.20;;;2.30;;
27199;SDS011;14714;48.106;11.546;2022-08-04T05:49:43;5.05;;;2.20;;
27199;SDS011;14714;48.106;11.546;2022-08-04T05:52:27;6.68;;;2.38;;
27199;SDS011;14714;48.106;11.546;2022-08-04T05:54:57;8.40;;;2.38;;
27199;SDS011;14714;48.106;11.546;2022-08-04T05:57:25;4.55;;;2.22;;
27199;SDS011;14714;48.106;11.546;2022-08-04T05:59:54;4.68;;;2.38;;
27199;SDS011;14714;48.106;11.546;2022-08-04T06:02:23;6.07;;;2.40;;
27199;SDS011;14714;48.106;11.546;2022-08-04T06:04:53;2.92;;;2.58;;
27199;SDS011;14714;48.106;11.546;2022-08-04T06:07:21;4.28;;;2.25;;
27199;SDS011;14714;48.106;11.546;2022-08-04T06:09:48;4.32;;;2.30;;
27199;SDS011;14714;48.106;11.546;2022-08-04T06:12:22;4.63;;;2.40;;
27199;SDS011;14714;48.106;11.546;2022-08-04T06:14:53;2.90;;;2.40;;
27199;SDS011;14714;48.106;11.546;2022-08-04T06:17:27;2.85;;;2.53;;
27199;SDS011;14714;48.106;11.546;2022-08-04T06:20:18;5.47;;;2.53;;
27199;SDS011;14714;48.106;11.546;2022-08-04T06:22:49;5.53;;;2.30;;
27199;SDS011;14714;48.106;11.546;2022-08-04T06:25:20;3.08;;;2.30;;
27199;SDS011;14714;48.106;11.546;2022-08-04T06:27:49;3.95;;;2.38;;
27199;SDS011;14714;48.106;11.546;2022-08-04T06:30:17;4.40;;;2.47;;
27199;SDS011;14714;48.106;11.546;2022-08-04T06:32:45;2.47;;;2.28;;
27199;SDS011;14714;48.106;11.546;2022-08-04T06:35:30;2.60;;;2.17;;
27199;SDS011;14714;48.106;11.546;2022-08-04T06:37:57;3.08;;;2.00;;
27199;SDS011;14714;48.106;11.546;2022-08-04T06:40:27;4.38;;;2.33;;
27199;SDS011;14714;48.106;11.546;2022-08-04T06:43:02;2.20;;;2.00;;
27199;SDS011;14714;48.106;11.546;2022-08-04T06:45:35;3.00;;;2.30;;
27199;SDS011;14714;48.106;11.546;2022-08-04T06:48:05;2.97;;;2.20;;
27199;SDS011;14714;48.106;11.546;2022-08-04T06:50:36;5.15;;;2.50;;
27199;SDS011;14714;48.106;11.546;2022-08-04T06:53:25;3.20;;;2.40;;
27199;SDS011;14714;48.106;11.546;2022-08-04T06:55:52;4.10;;;2.28;;
27199;SDS011;14714;48.106;11.546;2022-08-04T06:58:21;5.28;;;2.35;;
27199;SDS011;14714;48.106;11.546;2022-08-04T07:00:49;3.17;;;2.35;;
27199;SDS011;14714;48.106;11.546;2022-08-04T07:03:17;2.60;;;2.38;;
27199;SDS011;14714;48.106;11.546;2022-08-04T07:05:45;2.95;;;2.47;;
27199;SDS011;14714;48.106;11.546;2022-08-04T07:08:13;4.40;;;2.53;;
27199;SDS011;14714;48.106;11.546;2022-08-04T07:10:40;3.47;;;2.42;;
27199;SDS011;14714;48.106;11.546;2022-08-04T07:13:08;3.25;;;2.40;;
27199;SDS011;14714;48.106;11.546;2022-08-04T07:15:37;3.43;;;2.20;;
27199;SDS011;14714;48.106;11.546;2022-08-04T07:18:08;2.42;;;2.22;;
27199;SDS011;14714;48.106;11.546;2022-08-04T07:20:35;4.38;;;2.40;;
27199;SDS011;14714;48.106;11.546;2022-08-04T07:23:10;4.55;;;2.38;;
27199;SDS011;14714;48.106;11.546;2022-08-04T07:25:42;3.83;;;2.30;;
27199;SDS011;14714;48.106;11.546;2022-08-04T07:28:34;2.92;;;2.60;;
27199;SDS011;14714;48.106;11.546;2022-08-04T07:31:01;4.03;;;2.35;;
27199;SDS011;14714;48.106;11.546;2022-08-04T07:33:30;2.67;;;2.30;;
27199;SDS011;14714;48.106;11.546;2022-08-04T07:35:57;6.75;;;2.92;;
27199;SDS011;14714;48.106;11.546;2022-08-04T07:38:40;4.00;;;2.47;;
27199;SDS011;14714;48.106;11.546;2022-08-04T07:41:20;2.60;;;2.40;;
27199;SDS011;14714;48.106;11.546;2022-08-04T07:44:04;2.60;;;2.40;;
27199;SDS011;14714;48.106;11.546;2022-08-04T07:46:32;3.75;;;2.47;;
27199;SDS011;14714;48.106;11.546;2022-08-04T07:49:00;5.38;;;2.45;;
27199;SDS011;14714;48.106;11.546;2022-08-04T07:51:28;3.67;;;2.28;;
27199;SDS011;14714;48.106;11.546;2022-08-04T07:53:56;2.83;;;2.40;;
27199;SDS011;14714;48.106;11.546;2022-08-04T07:56:24;2.47;;;2.28;;
27199;SDS011;14714;48.106;11.546;2022-08-04T07:58:52;5.28;;;2.35;;
27199;SDS011;14714;48.106;11.546;2022-08-04T08:01:19;3.95;;;2.47;;
27199;SDS011;14714;48.106;11.546;2022-08-04T08:03:47;2.63;;;2.22;;
27199;SDS011;14714;48.106;11.546;2022-08-04T08:06:15;3.22;;;2.50;;
27199;SDS011;14714;48.106;11.546;2022-08-04T08:08:59;3.63;;;2.30;;
27199;SDS011;14714;48.106;11.546;2022-08-04T08:11:39;6.55;;;2.47;;
27199;SDS011;14714;48.106;11.546;2022-08-04T08:14:28;7.63;;;2.30;;
27199;SDS011;14714;48.106;11.546;2022-08-04T08:16:57;3.73;;;2.60;;
27199;SDS011;14714;48.106;11.546;2022-08-04T08:19:25;5.05;;;2.40;;
27199;SDS011;14714;48.106;11.546;2022-08-04T08:21:52;2.30;;;2.10;;
27199;SDS011;14714;48.106;11.546;2022-08-04T08:24:25;2.50;;;2.30;;
27199;SDS011;14714;48.106;11.546;2022-08-04T08:26:57;3.58;;;2.38;;
27199;SDS011;14714;48.106;11.546;2022-08-04T08:29:25;3.38;;;2.50;;
27199;SDS011;14714;48.106;11.546;2022-08-04T08:31:54;2.30;;;2.10;;
27199;SDS011;14714;48.106;11.546;2022-08-04T08:34:27;5.28;;;2.50;;
27199;SDS011;14714;48.106;11.546;2022-08-04T08:36:57;2.67;;;2.47;;
27199;SDS011;14714;48.106;11.546;2022-08-04T08:40:07;2.75;;;2.42;;
27199;SDS011;14714;48.106;11.546;2022-08-04T08:48:32;4.63;;;2.60;;
27199;SDS011;14714;48.106;11.546;2022-08-04T08:59:43;2.78;;;2.33;;
27199;SDS011;14714;48.106;11.546;2022-08-04T09:02:32;2.20;;;2.10;;
27199;SDS011;14714;48.106;11.546;2022-08-04T09:11:11;6.15;;;2.28;;
27199;SDS011;14714;48.106;11.546;2022-08-04T09:13:51;3.35;;;2.20;;
27199;SDS011;14714;48.106;11.546;2022-08-04T09:19:09;2.40;;;2.13;;
27199;SDS011;14714;48.106;11.546;2022-08-04T09:22:04;2.88;;;2.58;;
27199;SDS011;14714;48.106;11.546;2022-08-04T09:27:17;3.85;;;2.47;;
27199;SDS011;14714;48.106;11.546;2022-08-04T09:40:50;2.65;;;2.45;;
27199;SDS011;14714;48.106;11.546;2022-08-04T09:56:07;4.57;;;2.58;;
27199;SDS011;14714;48.106;11.546;2022-08-04T10:01:12;2.90;;;2.60;;
27199;SDS011;14714;48.106;11.546;2022-08-04T10:03:49;12.05;;;3.20;;
27199;SDS011;14714;48.106;11.546;2022-08-04T10:12:34;3.20;;;2.60;;
27199;SDS011;14714;48.106;11.546;2022-08-04T10:15:26;2.85;;;2.40;;
27199;SDS011;14714;48.106;11.546;2022-08-04T10:18:16;7.28;;;2.60;;
27199;SDS011;14714;48.106;11.546;2022-08-04T10:21:41;2.70;;;2.50;;
27199;SDS011;14714;48.106;11.546;2022-08-04T10:27:51;3.38;;;2.30;;
27199;SDS011;14714;48.106;11.546;2022-08-04T10:30:28;4.78;;;2.53;;
27199;SDS011;14714;48.106;11.546;2022-08-04T10:36:08;3.10;;;2.60;;
27199;SDS011;14714;48.106;11.546;2022-08-04T10:38:36;3.72;;;2.55;;
27199;SDS011;14714;48.106;11.546;2022-08-04T10:41:32;4.22;;;2.50;;
27199;SDS011;14714;48.106;11.546;2022-08-04T10:44:31;4.85;;;2.70;;
27199;SDS011;14714;48.106;11.546;2022-08-04T10:47:08;4.25;;;2.60;;
27199;SDS011;14714;48.106;11.546;2022-08-04T10:49:44;3.55;;;2.75;;
27199;SDS011;14714;48.106;11.546;2022-08-04T10:52:18;4.38;;;2.60;;
27199;SDS011;14714;48.106;11.546;2022-08-04T10:54:57;4.53;;;2.35;;
27199;SDS011;14714;48.106;11.546;2022-08-04T10:57:32;3.20;;;2.55;;
27199;SDS011;14714;48.106;11.546;2022-08-04T11:00:02;4.80;;;2.58;;
27199;SDS011;14714;48.106;11.546;2022-08-04T11:07:48;3.63;;;2.40;;
27199;SDS011;14714;48.106;11.546;2022-08-04T11:10:19;4.47;;;2.40;;
27199;SDS011;14714;48.106;11.546;2022-08-04T11:12:52;4.25;;;2.65;;
27199;SDS011;14714;48.106;11.546;2022-08-04T11:15:27;5.38;;;2.40;;
27199;SDS011;14714;48.106;11.546;2022-08-04T11:18:01;4.45;;;2.30;;
27199;SDS011;14714;48.106;11.546;2022-08-04T11:20:43;4.70;;;2.22;;
27199;SDS011;14714;48.106;11.546;2022-08-04T11:23:22;3.83;;;2.30;;
27199;SDS011;14714;48.106;11.546;2022-08-04T11:25:58;3.55;;;2.20;;
27199;SDS011;14714;48.106;11.546;2022-08-04T11:31:40;3.63;;;2.10;;
27199;SDS011;14714;48.106;11.546;2022-08-04T11:37:10;2.53;;;2.20;;
27199;SDS011;14714;48.106;11.546;2022-08-04T11:40:08;4.60;;;2.30;;
27199;SDS011;14714;48.106;11.546;2022-08-04T11:42:42;10.90;;;2.47;;
27199;SDS011;14714;48.106;11.546;2022-08-04T11:45:39;6.65;;;2.65;;
27199;SDS011;14714;48.106;11.546;2022-08-04T11:48:23;2.60;;;2.38;;
27199;SDS011;14714;48.106;11.546;2022-08-04T11:51:02;3.72;;;2.35;;
27199;SDS011;14714;48.106;11.546;2022-08-04T11:53:33;3.00;;;2.30;;
27199;SDS011;14714;48.106;11.546;2022-08-04T11:56:04;2.50;;;2.08;;
27199;SDS011;14714;48.106;11.546;2022-08-04T11:58:36;9.48;;;2.70;;
27199;SDS011;14714;48.106;11.546;2022-08-04T12:04:02;6.78;;;2.47;;
27199;SDS011;14714;48.106;11.546;2022-08-04T12:15:29;15.35;;;2.45;;
27199;SDS011;14714;48.106;11.546;2022-08-04T12:21:02;4.20;;;2.60;;
27199;SDS011;14714;48.106;11.546;2022-08-04T12:23:37;4.70;;;2.58;;
27199;SDS011;14714;48.106;11.546;2022-08-04T12:26:06;4.10;;;2.55;;
27199;SDS011;14714;48.106;11.546;2022-08-04T12:28:39;5.00;;;2.40;;
27199;SDS011;14714;48.106;11.546;2022-08-04T12:31:29;6.15;;;2.22;;
27199;SDS011;14714;48.106;11.546;2022-08-04T12:39:56;3.55;;;2.50;;
27199;SDS011;14714;48.106;11.546;2022-08-04T12:42:52;2.60;;;2.40;;
27199;SDS011;14714;48.106;11.546;2022-08-04T12:45:28;4.30;;;2.38;;
27199;SDS011;14714;48.106;11.546;2022-08-04T12:47:58;6.13;;;2.22;;
27199;SDS011;14714;48.106;11.546;2022-08-04T12:50:26;4.85;;;2.50;;
27199;SDS011;14714;48.106;11.546;2022-08-04T12:52:55;2.50;;;2.30;;
27199;SDS011;14714;48.106;11.546;2022-08-04T12:55:29;5.90;;;2.33;;
27199;SDS011;14714;48.106;11.546;2022-08-04T12:57:59;10.02;;;2.50;;
27199;SDS011;14714;48.106;11.546;2022-08-04T13:00:28;5.65;;;2.20;;
27199;SDS011;14714;48.106;11.546;2022-08-04T13:03:16;3.20;;;2.55;;
27199;SDS011;14714;48.106;11.546;2022-08-04T13:05:44;2.60;;;2.20;;
27199;SDS011;14714;48.106;11.546;2022-08-04T13:08:13;3.10;;;2.42;;
27199;SDS011;14714;48.106;11.546;2022-08-04T13:10:43;8.57;;;2.83;;
27199;SDS011;14714;48.106;11.546;2022-08-04T13:13:17;2.45;;;2.25;;
27199;SDS011;14714;48.106;11.546;2022-08-04T13:15:53;6.22;;;2.30;;
27199;SDS011;14714;48.106;11.546;2022-08-04T13:18:29;2.38;;;2.15;;
27199;SDS011;14714;48.106;11.546;2022-08-04T13:24:11;3.17;;;2.42;;
27199;SDS011;14714;48.106;11.546;2022-08-04T13:26:56;3.25;;;2.47;;
27199;SDS011;14714;48.106;11.546;2022-08-04T13:29:36;4.05;;;2.38;;
27199;SDS011;14714;48.106;11.546;2022-08-04T13:32:28;3.58;;;2.40;;
27199;SDS011;14714;48.106;11.546;2022-08-04T13:34:56;3.45;;;2.20;;
27199;SDS011;14714;48.106;11.546;2022-08-04T13:37:31;3.28;;;2.20;;
27199;SDS011;14714;48.106;11.546;2022-08-04T13:40:03;5.82;;;2.33;;
27199;SDS011;14714;48.106;11.546;2022-08-04T13:42:32;5.40;;;2.80;;
27199;SDS011;14714;48.106;11.546;2022-08-04T13:45:02;18.35;;;2.45;;
27199;SDS011;14714;48.106;11.546;2022-08-04T13:47:32;8.23;;;2.65;;
27199;SDS011;14714;48.106;11.546;2022-08-04T13:52:38;6.50;;;2.83;;
27199;SDS011;14714;48.106;11.546;2022-08-04T13:55:06;6.38;;;2.30;;
27199;SDS011;14714;48.106;11.546;2022-08-04T13:57:35;5.75;;;2.28;;
27199;SDS011;14714;48.106;11.546;2022-08-04T14:00:10;2.40;;;2.20;;
27199;SDS011;14714;48.106;11.546;2022-08-04T14:05:25;4.55;;;2.40;;
27199;SDS011;14714;48.106;11.546;2022-08-04T14:10:32;7.60;;;2.60;;
27199;SDS011;14714;48.106;11.546;2022-08-04T14:13:00;4.53;;;2.60;;
27199;SDS011;14714;48.106;11.546;2022-08-04T14:15:30;2.55;;;2.35;;
27199;SDS011;14714;48.106;11.546;2022-08-04T14:18:29;2.70;;;2.50;;
27199;SDS011;14714;48.106;11.546;2022-08-04T14:23:37;4.35;;;2.40;;
27199;SDS011;14714;48.106;11.546;2022-08-04T14:26:20;4.18;;;2.40;;
27199;SDS011;14714;48.106;11.546;2022-08-04T14:29:12;6.75;;;2.45;;
27199;SDS011;14714;48.106;11.546;2022-08-04T14:31:58;5.18;;;2.47;;
27199;SDS011;14714;48.106;11.546;2022-08-04T14:34:28;4.63;;;2.38;;
27199;SDS011;14714;48.106;11.546;2022-08-04T14:36:55;6.10;;;2.70;;
27199;SDS011;14714;48.106;11.546;2022-08-04T14:39:48;3.63;;;2.53;;
27199;SDS011;14714;48.106;11.546;2022-08-04T14:42:40;4.15;;;2.50;;
27199;SDS011;14714;48.106;11.546;2022-08-04T14:50:32;3.15;;;2.40;;
27199;SDS011;14714;48.106;11.546;2022-08-04T14:53:07;3.45;;;2.38;;
27199;SDS011;14714;48.106;11.546;2022-08-04T14:55:37;2.53;;;2.17;;
27199;SDS011;14714;48.106;11.546;2022-08-04T14:58:05;3.25;;;2.20;;
27199;SDS011;14714;48.106;11.546;2022-08-04T15:00:52;4.28;;;2.80;;
27199;SDS011;14714;48.106;11.546;2022-08-04T15:03:24;5.35;;;2.70;;
27199;SDS011;14714;48.106;11.546;2022-08-04T15:05:52;2.95;;;2.47;;
27199;SDS011;14714;48.106;11.546;2022-08-04T15:08:30;3.88;;;2.22;;
27199;SDS011;14714;48.106;11.546;2022-08-04T15:11:01;4.03;;;2.30;;
27199;SDS011;14714;48.106;11.546;2022-08-04T15:13:29;6.30;;;2.47;;
27199;SDS011;14714;48.106;11.546;2022-08-04T15:15:57;2.45;;;2.20;;
27199;SDS011;14714;48.106;11.546;2022-08-04T15:18:34;3.97;;;2.30;;
27199;SDS011;14714;48.106;11.546;2022-08-04T15:21:03;3.25;;;2.33;;
27199;SDS011;14714;48.106;11.546;2022-08-04T15:23:30;2.72;;;2.05;;
27199;SDS011;14714;48.106;11.546;2022-08-04T15:26:05;4.40;;;2.70;;
27199;SDS011;14714;48.106;11.546;2022-08-04T15:28:37;3.10;;;2.42;;
27199;SDS011;14714;48.106;11.546;2022-08-04T15:31:06;2.50;;;2.30;;
27199;SDS011;14714;48.106;11.546;2022-08-04T15:33:54;3.50;;;2.30;;
27199;SDS011;14714;48.106;11.546;2022-08-04T15:36:42;3.00;;;2.10;;
27199;SDS011;14714;48.106;11.546;2022-08-04T15:47:40;3.70;;;2.10;;
27199;SDS011;14714;48.106;11.546;2022-08-04T15:50:18;3.58;;;2.25;;
27199;SDS011;14714;48.106;11.546;2022-08-04T15:55:36;5.43;;;2.22;;
27199;SDS011;14714;48.106;11.546;2022-08-04T15:58:06;4.87;;;2.20;;
27199;SDS011;14714;48.106;11.546;2022-08-04T16:09:03;3.08;;;2.40;;
27199;SDS011;14714;48.106;11.546;2022-08-04T16:14:08;2.63;;;2.42;;
27199;SDS011;14714;48.106;11.546;2022-08-04T16:22:01;7.57;;;2.58;;
27199;SDS011;14714;48.106;11.546;2022-08-04T16:24:38;6.20;;;2.88;;
27199;SDS011;14714;48.106;11.546;2022-08-04T16:27:07;4.32;;;2.30;;
27199;SDS011;14714;48.106;11.546;2022-08-04T16:32:13;4.40;;;2.50;;
27199;SDS011;14714;48.106;11.546;2022-08-04T16:37:22;4.77;;;2.07;;
27199;SDS011;14714;48.106;11.546;2022-08-04T16:43:04;3.55;;;2.60;;
27199;SDS011;14714;48.106;11.546;2022-08-04T16:45:42;5.18;;;2.35;;
27199;SDS011;14714;48.106;11.546;2022-08-04T16:48:09;4.20;;;2.30;;
27199;SDS011;14714;48.106;11.546;2022-08-04T16:50:44;3.47;;;2.50;;
27199;SDS011;14714;48.106;11.546;2022-08-04T16:53:13;4.70;;;2.42;;
27199;SDS011;14714;48.106;11.546;2022-08-04T16:56:03;2.60;;;2.40;;
27199;SDS011;14714;48.106;11.546;2022-08-04T16:58:31;3.45;;;2.47;;
27199;SDS011;14714;48.106;11.546;2022-08-04T17:01:11;2.33;;;2.13;;
27199;SDS011;14714;48.106;11.546;2022-08-04T17:03:57;2.97;;;2.67;;
27199;SDS011;14714;48.106;11.546;2022-08-04T17:06:33;3.03;;;2.35;;
27199;SDS011;14714;48.106;11.546;2022-08-04T17:09:03;2.58;;;2.38;;
27199;SDS011;14714;48.106;11.546;2022-08-04T17:11:54;3.53;;;2.40;;
27199;SDS011;14714;48.106;11.546;2022-08-04T17:14:23;4.68;;;2.60;;
27199;SDS011;14714;48.106;11.546;2022-08-04T17:19:19;5.10;;;2.60;;
27199;SDS011;14714;48.106;11.546;2022-08-04T17:21:52;3.35;;;2.50;;
27199;SDS011;14714;48.106;11.546;2022-08-04T17:24:28;2.17;;;1.98;;
27199;SDS011;14714;48.106;11.546;2022-08-04T17:26:55;3.08;;;2.50;;
27199;SDS011;14714;48.106;11.546;2022-08-04T17:29:25;3.03;;;2.67;;
27199;SDS011;14714;48.106;11.546;2022-08-04T17:32:16;4.30;;;2.70;;
27199;SDS011;14714;48.106;11.546;2022-08-04T17:34:47;4.57;;;2.75;;
27199;SDS011;14714;48.106;11.546;2022-08-04T17:37:22;3.75;;;2.25;;
27199;SDS011;14714;48.106;11.546;2022-08-04T17:40:14;2.58;;;2.38;;
27199;SDS011;14714;48.106;11.546;2022-08-04T17:42:48;3.47;;;2.50;;
27199;SDS011;14714;48.106;11.546;2022-08-04T17:45:17;5.93;;;2.75;;
27199;SDS011;14714;48.106;11.546;2022-08-04T17:48:07;2.90;;;2.60;;
27199;SDS011;14714;48.106;11.546;2022-08-04T17:50:50;3.80;;;2.88;;
27199;SDS011;14714;48.106;11.546;2022-08-04T17:53:17;5.38;;;3.13;;
27199;SDS011;14714;48.106;11.546;2022-08-04T17:56:31;8.90;;;3.40;;
27199;SDS011;14714;48.106;11.546;2022-08-04T18:02:07;6.18;;;3.38;;
27199;SDS011;14714;48.106;11.546;2022-08-04T18:07:34;4.43;;;2.92;;
27199;SDS011;14714;48.106;11.546;2022-08-04T18:10:33;5.75;;;3.85;;
27199;SDS011;14714;48.106;11.546;2022-08-04T18:13:22;5.53;;;3.80;;
27199;SDS011;14714;48.106;11.546;2022-08-04T18:15:58;4.50;;;3.10;;
27199;SDS011;14714;48.106;11.546;2022-08-04T18:18:29;4.03;;;2.97;;
27199;SDS011;14714;48.106;11.546;2022-08-04T18:20:56;4.32;;;3.35;;
27199;SDS011;14714;48.106;11.546;2022-08-04T18:23:30;3.55;;;2.97;;
27199;SDS011;14714;48.106;11.546;2022-08-04T18:25:58;4.35;;;3.20;;
27199;SDS011;14714;48.106;11.546;2022-08-04T18:28:27;4.07;;;3.15;;
27199;SDS011;14714;48.106;11.546;2022-08-04T18:30:58;4.85;;;3.60;;
27199;SDS011;14714;48.106;11.546;2022-08-04T18:33:25;4.45;;;3.63;;
27199;SDS011;14714;48.106;11.546;2022-08-04T18:36:07;6.70;;;4.05;;
27199;SDS011;14714;48.106;11.546;2022-08-04T18:38:56;7.70;;;4.20;;
27199;SDS011;14714;48.106;11.546;2022-08-04T18:41:37;8.18;;;5.25;;
27199;SDS011;14714;48.106;11.546;2022-08-04T18:44:24;8.65;;;6.32;;
27199;SDS011;14714;48.106;11.546;2022-08-04T18:46:54;9.25;;;6.57;;
27199;SDS011;14714;48.106;11.546;2022-08-04T18:49:21;15.48;;;9.00;;
27199;SDS011;14714;48.106;11.546;2022-08-04T18:52:09;12.43;;;8.40;;
27199;SDS011;14714;48.106;11.546;2022-08-04T18:54:41;10.07;;;7.72;;
27199;SDS011;14714;48.106;11.546;2022-08-04T18:57:08;10.85;;;7.38;;
27199;SDS011;14714;48.106;11.546;2022-08-04T18:59:55;9.80;;;7.68;;
27199;SDS011;14714;48.106;11.546;2022-08-04T19:02:25;10.43;;;7.15;;
27199;SDS011;14714;48.106;11.546;2022-08-04T19:04:52;12.05;;;7.53;;
27199;SDS011;14714;48.106;11.546;2022-08-04T19:07:19;11.63;;;7.20;;
27199;SDS011;14714;48.106;11.546;2022-08-04T19:09:55;10.48;;;8.05;;
27199;SDS011;14714;48.106;11.546;2022-08-04T19:12:24;14.40;;;8.17;;
27199;SDS011;14714;48.106;11.546;2022-08-04T19:14:54;15.65;;;8.23;;
27199;SDS011;14714;48.106;11.546;2022-08-04T19:17:42;11.23;;;7.10;;
27199;SDS011;14714;48.106;11.546;2022-08-04T19:20:29;9.27;;;6.93;;
27199;SDS011;14714;48.106;11.546;2022-08-04T19:22:56;12.10;;;7.45;;
27199;SDS011;14714;48.106;11.546;2022-08-04T19:25:43;11.07;;;7.25;;
27199;SDS011;14714;48.106;11.546;2022-08-04T19:28:30;11.52;;;7.53;;
27199;SDS011;14714;48.106;11.546;2022-08-04T19:31:07;11.98;;;7.28;;
27199;SDS011;14714;48.106;11.546;2022-08-04T19:33:34;10.75;;;7.22;;
27199;SDS011;14714;48.106;11.546;2022-08-04T19:36:23;13.35;;;8.13;;
27199;SDS011;14714;48.106;11.546;2022-08-04T19:38:55;10.88;;;7.32;;
27199;SDS011;14714;48.106;11.546;2022-08-04T19:41:23;14.75;;;8.18;;
27199;SDS011;14714;48.106;11.546;2022-08-04T19:43:52;11.52;;;7.45;;
27199;SDS011;14714;48.106;11.546;2022-08-04T19:46:19;10.57;;;7.35;;
27199;SDS011;14714;48.106;11.546;2022-08-04T19:48:50;10.15;;;7.20;;
27199;SDS011;14714;48.106;11.546;2022-08-04T19:51:25;10.48;;;6.93;;
27199;SDS011;14714;48.106;11.546;2022-08-04T19:53:53;9.80;;;7.40;;
27199;SDS011;14714;48.106;11.546;2022-08-04T19:56:29;9.10;;;6.82;;
27199;SDS011;14714;48.106;11.546;2022-08-04T19:59:16;8.57;;;6.75;;
27199;SDS011;14714;48.106;11.546;2022-08-04T20:01:43;8.63;;;6.60;;
27199;SDS011;14714;48.106;11.546;2022-08-04T20:04:12;10.32;;;6.60;;
27199;SDS011;14714;48.106;11.546;2022-08-04T20:06:40;10.52;;;7.35;;
27199;SDS011;14714;48.106;11.546;2022-08-04T20:09:07;14.48;;;9.23;;
27199;SDS011;14714;48.106;11.546;2022-08-04T20:11:55;17.15;;;9.68;;
27199;SDS011;14714;48.106;11.546;2022-08-04T20:14:25;13.93;;;9.38;;
27199;SDS011;14714;48.106;11.546;2022-08-04T20:16:58;15.82;;;9.82;;
27199;SDS011;14714;48.106;11.546;2022-08-04T20:19:26;11.45;;;8.75;;
27199;SDS011;14714;48.106;11.546;2022-08-04T20:21:55;13.32;;;8.90;;
27199;SDS011;14714;48.106;11.546;2022-08-04T20:24:22;13.65;;;8.82;;